sensor_id;sensor_type;location;lat;lon;timestamp;P1;durP1;ratioP1;P2;durP2;ratioP2
18503;SDS011;9381;54.244;10.074;2023-05-10T00:02:36;7.37;;;4.10;;
18503;SDS011;9381;54.244;10.074;2023-05-10T00:07:36;7.30;;;4.03;;
18503;SDS011;9381;54.244;10.074;2023-05-10T00:12:36;8.38;;;4.38;;
18503;SDS011;9381;54.244;10.074;2023-05-10T00:17:37;6.23;;;4.17;;
18503;SDS011;9381;54.244;10.074;2023-05-10T00:22:37;7.10;;;4.30;;
18503;SDS011;9381;54.244;10.074;2023-05-10T00:27:37;7.13;;;4.23;;
18503;SDS011;9381;54.244;10.074;2023-05-10T00:32:38;10.83;;;4.30;;
18503;SDS011;9381;54.244;10.074;2023-05-10T00:37:38;7.43;;;4.00;;
18503;SDS011;9381;54.244;10.074;2023-05-10T00:42:38;6.57;;;4.00;;
18503;SDS011;9381;54.244;10.074;2023-05-10T00:47:39;6.80;;;4.20;;
18503;SDS011;9381;54.244;10.074;2023-05-10T00:52:39;5.43;;;3.87;;
18503;SDS011;9381;54.244;10.074;2023-05-10T00:57:40;6.27;;;4.33;;
18503;SDS011;9381;54.244;10.074;2023-05-10T01:02:41;6.57;;;4.83;;
18503;SDS011;9381;54.244;10.074;2023-05-10T01:07:41;8.13;;;4.55;;
18503;SDS011;9381;54.244;10.074;2023-05-10T01:12:43;8.00;;;4.97;;
18503;SDS011;9381;54.244;10.074;2023-05-10T01:17:45;6.17;;;4.47;;
18503;SDS011;9381;54.244;10.074;2023-05-10T01:28:54;7.10;;;4.30;;
18503;SDS011;9381;54.244;10.074;2023-05-10T01:34:05;7.60;;;4.67;;
18503;SDS011;9381;54.244;10.074;2023-05-10T01:44:49;6.27;;;4.17;;
18503;SDS011;9381;54.244;10.074;2023-05-10T01:49:54;5.87;;;5.00;;
18503;SDS011;9381;54.244;10.074;2023-05-10T01:54:56;5.93;;;4.50;;
18503;SDS011;9381;54.244;10.074;2023-05-10T02:00:02;8.10;;;4.83;;
18503;SDS011;9381;54.244;10.074;2023-05-10T02:05:07;7.47;;;4.73;;
18503;SDS011;9381;54.244;10.074;2023-05-10T02:10:09;6.70;;;5.20;;
18503;SDS011;9381;54.244;10.074;2023-05-10T02:15:11;11.07;;;4.50;;
18503;SDS011;9381;54.244;10.074;2023-05-10T02:20:15;5.93;;;5.03;;
18503;SDS011;9381;54.244;10.074;2023-05-10T02:25:19;6.13;;;4.70;;
18503;SDS011;9381;54.244;10.074;2023-05-10T02:30:21;7.57;;;4.73;;
18503;SDS011;9381;54.244;10.074;2023-05-10T02:35:23;5.50;;;5.00;;
18503;SDS011;9381;54.244;10.074;2023-05-10T02:40:25;6.33;;;5.27;;
18503;SDS011;9381;54.244;10.074;2023-05-10T02:45:27;12.67;;;6.63;;
18503;SDS011;9381;54.244;10.074;2023-05-10T02:50:30;7.47;;;4.90;;
18503;SDS011;9381;54.244;10.074;2023-05-10T02:55:36;7.23;;;5.20;;
18503;SDS011;9381;54.244;10.074;2023-05-10T03:00:38;8.70;;;4.90;;
18503;SDS011;9381;54.244;10.074;2023-05-10T03:05:38;10.45;;;5.38;;
18503;SDS011;9381;54.244;10.074;2023-05-10T03:10:41;7.03;;;5.00;;
18503;SDS011;9381;54.244;10.074;2023-05-10T03:16:09;6.87;;;5.33;;
18503;SDS011;9381;54.244;10.074;2023-05-10T03:21:15;6.67;;;5.10;;
18503;SDS011;9381;54.244;10.074;2023-05-10T03:26:23;6.03;;;5.40;;
18503;SDS011;9381;54.244;10.074;2023-05-10T03:31:26;7.40;;;4.83;;
18503;SDS011;9381;54.244;10.074;2023-05-10T03:36:26;8.17;;;5.80;;
18503;SDS011;9381;54.244;10.074;2023-05-10T03:41:27;9.70;;;6.30;;
18503;SDS011;9381;54.244;10.074;2023-05-10T03:46:27;8.85;;;5.60;;
18503;SDS011;9381;54.244;10.074;2023-05-10T03:51:27;5.90;;;5.30;;
18503;SDS011;9381;54.244;10.074;2023-05-10T03:56:28;8.17;;;5.80;;
18503;SDS011;9381;54.244;10.074;2023-05-10T04:01:28;7.75;;;5.55;;
18503;SDS011;9381;54.244;10.074;2023-05-10T04:06:28;7.10;;;5.20;;
18503;SDS011;9381;54.244;10.074;2023-05-10T04:11:30;12.63;;;5.47;;
18503;SDS011;9381;54.244;10.074;2023-05-10T04:16:30;8.30;;;5.23;;
18503;SDS011;9381;54.244;10.074;2023-05-10T04:21:30;6.67;;;5.57;;
18503;SDS011;9381;54.244;10.074;2023-05-10T04:26:31;7.80;;;5.83;;
18503;SDS011;9381;54.244;10.074;2023-05-10T04:31:31;8.38;;;6.07;;
18503;SDS011;9381;54.244;10.074;2023-05-10T04:36:31;6.65;;;5.30;;
18503;SDS011;9381;54.244;10.074;2023-05-10T04:41:37;8.17;;;5.87;;
18503;SDS011;9381;54.244;10.074;2023-05-10T04:46:38;8.43;;;6.10;;
18503;SDS011;9381;54.244;10.074;2023-05-10T04:51:38;6.78;;;5.80;;
18503;SDS011;9381;54.244;10.074;2023-05-10T04:56:38;9.52;;;6.40;;
18503;SDS011;9381;54.244;10.074;2023-05-10T05:01:39;7.40;;;6.00;;
18503;SDS011;9381;54.244;10.074;2023-05-10T05:06:39;8.07;;;5.93;;
18503;SDS011;9381;54.244;10.074;2023-05-10T05:11:40;9.23;;;6.13;;
18503;SDS011;9381;54.244;10.074;2023-05-10T05:16:40;9.77;;;6.37;;
18503;SDS011;9381;54.244;10.074;2023-05-10T05:21:40;8.75;;;5.95;;
18503;SDS011;9381;54.244;10.074;2023-05-10T05:26:40;7.97;;;6.03;;
18503;SDS011;9381;54.244;10.074;2023-05-10T05:31:41;9.17;;;6.50;;
18503;SDS011;9381;54.244;10.074;2023-05-10T05:36:41;6.80;;;5.97;;
18503;SDS011;9381;54.244;10.074;2023-05-10T05:41:42;7.40;;;6.20;;
18503;SDS011;9381;54.244;10.074;2023-05-10T05:46:42;9.10;;;6.20;;
18503;SDS011;9381;54.244;10.074;2023-05-10T05:51:42;8.50;;;6.35;;
18503;SDS011;9381;54.244;10.074;2023-05-10T05:56:43;8.47;;;6.00;;
18503;SDS011;9381;54.244;10.074;2023-05-10T06:01:44;7.17;;;6.20;;
18503;SDS011;9381;54.244;10.074;2023-05-10T06:06:44;6.40;;;5.73;;
18503;SDS011;9381;54.244;10.074;2023-05-10T06:11:45;12.43;;;6.30;;
18503;SDS011;9381;54.244;10.074;2023-05-10T06:16:45;7.67;;;6.33;;
18503;SDS011;9381;54.244;10.074;2023-05-10T06:21:46;6.93;;;5.80;;
18503;SDS011;9381;54.244;10.074;2023-05-10T06:26:46;6.77;;;5.67;;
18503;SDS011;9381;54.244;10.074;2023-05-10T06:31:46;7.93;;;5.97;;
18503;SDS011;9381;54.244;10.074;2023-05-10T06:36:47;8.80;;;5.80;;
18503;SDS011;9381;54.244;10.074;2023-05-10T06:41:48;8.43;;;6.10;;
18503;SDS011;9381;54.244;10.074;2023-05-10T06:46:48;6.27;;;5.67;;
18503;SDS011;9381;54.244;10.074;2023-05-10T06:51:48;7.68;;;6.15;;
18503;SDS011;9381;54.244;10.074;2023-05-10T06:56:48;9.03;;;6.00;;
18503;SDS011;9381;54.244;10.074;2023-05-10T07:01:49;9.57;;;5.90;;
18503;SDS011;9381;54.244;10.074;2023-05-10T07:06:49;6.82;;;5.97;;
18503;SDS011;9381;54.244;10.074;2023-05-10T07:11:49;8.27;;;6.60;;
18503;SDS011;9381;54.244;10.074;2023-05-10T07:16:50;6.77;;;5.93;;
18503;SDS011;9381;54.244;10.074;2023-05-10T07:21:50;9.47;;;6.30;;
18503;SDS011;9381;54.244;10.074;2023-05-10T07:26:50;9.47;;;6.00;;
18503;SDS011;9381;54.244;10.074;2023-05-10T07:31:51;9.40;;;6.72;;
18503;SDS011;9381;54.244;10.074;2023-05-10T07:36:51;8.18;;;6.15;;
18503;SDS011;9381;54.244;10.074;2023-05-10T07:41:51;6.23;;;5.63;;
18503;SDS011;9381;54.244;10.074;2023-05-10T07:46:52;9.93;;;6.27;;
18503;SDS011;9381;54.244;10.074;2023-05-10T07:51:52;6.23;;;5.20;;
18503;SDS011;9381;54.244;10.074;2023-05-10T07:56:52;6.80;;;5.90;;
18503;SDS011;9381;54.244;10.074;2023-05-10T08:01:53;7.07;;;6.07;;
18503;SDS011;9381;54.244;10.074;2023-05-10T08:06:53;8.18;;;5.65;;
18503;SDS011;9381;54.244;10.074;2023-05-10T08:11:54;6.70;;;5.90;;
18503;SDS011;9381;54.244;10.074;2023-05-10T08:16:55;7.67;;;6.00;;
18503;SDS011;9381;54.244;10.074;2023-05-10T08:21:56;9.60;;;6.60;;
18503;SDS011;9381;54.244;10.074;2023-05-10T08:26:57;8.37;;;6.03;;
18503;SDS011;9381;54.244;10.074;2023-05-10T08:31:57;9.30;;;6.20;;
18503;SDS011;9381;54.244;10.074;2023-05-10T08:36:57;7.57;;;6.88;;
18503;SDS011;9381;54.244;10.074;2023-05-10T08:41:58;8.13;;;6.37;;
18503;SDS011;9381;54.244;10.074;2023-05-10T08:47:02;9.83;;;6.53;;
18503;SDS011;9381;54.244;10.074;2023-05-10T08:52:05;10.43;;;6.23;;
18503;SDS011;9381;54.244;10.074;2023-05-10T08:57:07;11.43;;;6.30;;
18503;SDS011;9381;54.244;10.074;2023-05-10T09:02:07;6.63;;;5.80;;
18503;SDS011;9381;54.244;10.074;2023-05-10T09:07:10;8.70;;;6.50;;
18503;SDS011;9381;54.244;10.074;2023-05-10T09:12:11;7.37;;;6.37;;
18503;SDS011;9381;54.244;10.074;2023-05-10T09:17:13;6.83;;;6.13;;
18503;SDS011;9381;54.244;10.074;2023-05-10T09:22:13;10.73;;;6.93;;
18503;SDS011;9381;54.244;10.074;2023-05-10T09:27:14;9.07;;;6.17;;
18503;SDS011;9381;54.244;10.074;2023-05-10T09:32:14;8.23;;;6.23;;
18503;SDS011;9381;54.244;10.074;2023-05-10T09:37:14;6.83;;;6.13;;
18503;SDS011;9381;54.244;10.074;2023-05-10T09:42:17;9.03;;;6.10;;
18503;SDS011;9381;54.244;10.074;2023-05-10T09:47:18;9.97;;;6.40;;
18503;SDS011;9381;54.244;10.074;2023-05-10T09:52:19;8.13;;;5.70;;
18503;SDS011;9381;54.244;10.074;2023-05-10T09:57:22;13.13;;;6.40;;
18503;SDS011;9381;54.244;10.074;2023-05-10T10:02:28;9.60;;;6.37;;
18503;SDS011;9381;54.244;10.074;2023-05-10T10:07:29;7.80;;;5.77;;
18503;SDS011;9381;54.244;10.074;2023-05-10T10:12:29;6.47;;;5.87;;
18503;SDS011;9381;54.244;10.074;2023-05-10T10:17:29;6.38;;;5.63;;
18503;SDS011;9381;54.244;10.074;2023-05-10T10:22:31;5.97;;;5.43;;
18503;SDS011;9381;54.244;10.074;2023-05-10T10:28:15;6.43;;;5.83;;
18503;SDS011;9381;54.244;10.074;2023-05-10T10:33:29;9.13;;;5.90;;
18503;SDS011;9381;54.244;10.074;2023-05-10T10:39:21;6.53;;;5.50;;
18503;SDS011;9381;54.244;10.074;2023-05-10T10:54:40;7.60;;;5.83;;
18503;SDS011;9381;54.244;10.074;2023-05-10T10:59:42;8.90;;;6.23;;
18503;SDS011;9381;54.244;10.074;2023-05-10T11:04:43;9.03;;;6.73;;
18503;SDS011;9381;54.244;10.074;2023-05-10T11:09:46;8.70;;;5.80;;
18503;SDS011;9381;54.244;10.074;2023-05-10T11:14:49;9.20;;;6.33;;
18503;SDS011;9381;54.244;10.074;2023-05-10T11:20:06;8.43;;;5.97;;
18503;SDS011;9381;54.244;10.074;2023-05-10T11:25:10;6.67;;;5.90;;
18503;SDS011;9381;54.244;10.074;2023-05-10T11:30:10;6.43;;;5.53;;
18503;SDS011;9381;54.244;10.074;2023-05-10T11:35:11;8.17;;;6.03;;
18503;SDS011;9381;54.244;10.074;2023-05-10T11:40:12;12.77;;;6.10;;
18503;SDS011;9381;54.244;10.074;2023-05-10T11:45:13;7.63;;;5.80;;
18503;SDS011;9381;54.244;10.074;2023-05-10T11:50:13;7.83;;;6.20;;
18503;SDS011;9381;54.244;10.074;2023-05-10T11:55:14;6.73;;;6.13;;
18503;SDS011;9381;54.244;10.074;2023-05-10T12:00:14;7.13;;;6.43;;
18503;SDS011;9381;54.244;10.074;2023-05-10T12:05:15;10.43;;;6.97;;
18503;SDS011;9381;54.244;10.074;2023-05-10T12:10:15;10.20;;;8.67;;
18503;SDS011;9381;54.244;10.074;2023-05-10T12:15:24;12.63;;;9.33;;
18503;SDS011;9381;54.244;10.074;2023-05-10T12:20:26;12.27;;;10.77;;
18503;SDS011;9381;54.244;10.074;2023-05-10T12:25:31;17.70;;;11.50;;
18503;SDS011;9381;54.244;10.074;2023-05-10T12:30:36;14.50;;;13.10;;
18503;SDS011;9381;54.244;10.074;2023-05-10T12:40:53;15.43;;;13.80;;
18503;SDS011;9381;54.244;10.074;2023-05-10T12:45:53;18.17;;;14.30;;
18503;SDS011;9381;54.244;10.074;2023-05-10T12:50:54;19.43;;;14.77;;
18503;SDS011;9381;54.244;10.074;2023-05-10T12:55:54;16.40;;;14.70;;
18503;SDS011;9381;54.244;10.074;2023-05-10T13:00:55;17.10;;;15.23;;
18503;SDS011;9381;54.244;10.074;2023-05-10T13:05:56;19.27;;;14.70;;
18503;SDS011;9381;54.244;10.074;2023-05-10T13:10:56;18.10;;;14.30;;
18503;SDS011;9381;54.244;10.074;2023-05-10T13:15:57;16.30;;;14.30;;
18503;SDS011;9381;54.244;10.074;2023-05-10T13:20:57;15.75;;;13.50;;
18503;SDS011;9381;54.244;10.074;2023-05-10T13:25:57;16.57;;;13.87;;
18503;SDS011;9381;54.244;10.074;2023-05-10T13:30:58;17.37;;;13.80;;
18503;SDS011;9381;54.244;10.074;2023-05-10T13:35:59;15.90;;;13.27;;
18503;SDS011;9381;54.244;10.074;2023-05-10T13:41:00;16.85;;;14.80;;
18503;SDS011;9381;54.244;10.074;2023-05-10T13:46:00;17.03;;;13.70;;
18503;SDS011;9381;54.244;10.074;2023-05-10T13:51:00;15.85;;;14.05;;
18503;SDS011;9381;54.244;10.074;2023-05-10T13:56:01;16.53;;;13.67;;
18503;SDS011;9381;54.244;10.074;2023-05-10T14:01:02;15.07;;;13.37;;
18503;SDS011;9381;54.244;10.074;2023-05-10T14:06:03;15.07;;;12.73;;
18503;SDS011;9381;54.244;10.074;2023-05-10T14:11:03;15.87;;;12.50;;
18503;SDS011;9381;54.244;10.074;2023-05-10T14:16:03;15.10;;;12.80;;
18503;SDS011;9381;54.244;10.074;2023-05-10T14:21:04;16.70;;;13.33;;
18503;SDS011;9381;54.244;10.074;2023-05-10T14:26:04;15.03;;;13.47;;
18503;SDS011;9381;54.244;10.074;2023-05-10T14:31:05;15.40;;;13.43;;
18503;SDS011;9381;54.244;10.074;2023-05-10T14:36:06;15.50;;;12.70;;
18503;SDS011;9381;54.244;10.074;2023-05-10T14:41:06;14.57;;;13.00;;
18503;SDS011;9381;54.244;10.074;2023-05-10T14:46:07;14.93;;;12.80;;
18503;SDS011;9381;54.244;10.074;2023-05-10T14:51:08;14.07;;;12.57;;
18503;SDS011;9381;54.244;10.074;2023-05-10T14:56:08;12.73;;;11.13;;
18503;SDS011;9381;54.244;10.074;2023-05-10T15:01:09;11.98;;;10.77;;
18503;SDS011;9381;54.244;10.074;2023-05-10T15:06:09;15.80;;;10.40;;
18503;SDS011;9381;54.244;10.074;2023-05-10T15:11:10;13.43;;;10.73;;
18503;SDS011;9381;54.244;10.074;2023-05-10T15:16:10;13.23;;;10.77;;
18503;SDS011;9381;54.244;10.074;2023-05-10T15:21:11;11.90;;;10.70;;
18503;SDS011;9381;54.244;10.074;2023-05-10T15:26:12;11.53;;;10.37;;
18503;SDS011;9381;54.244;10.074;2023-05-10T15:31:14;10.53;;;9.43;;
18503;SDS011;9381;54.244;10.074;2023-05-10T15:36:14;10.73;;;9.67;;
18503;SDS011;9381;54.244;10.074;2023-05-10T15:41:15;9.77;;;8.60;;
18503;SDS011;9381;54.244;10.074;2023-05-10T15:46:16;10.47;;;9.47;;
18503;SDS011;9381;54.244;10.074;2023-05-10T15:51:16;10.17;;;9.17;;
18503;SDS011;9381;54.244;10.074;2023-05-10T15:56:18;7.80;;;7.10;;
18503;SDS011;9381;54.244;10.074;2023-05-10T16:01:19;8.87;;;8.07;;
18503;SDS011;9381;54.244;10.074;2023-05-10T16:06:19;10.60;;;8.60;;
18503;SDS011;9381;54.244;10.074;2023-05-10T16:11:20;8.87;;;7.97;;
18503;SDS011;9381;54.244;10.074;2023-05-10T16:16:20;10.50;;;9.30;;
18503;SDS011;9381;54.244;10.074;2023-05-10T16:21:21;10.83;;;9.83;;
18503;SDS011;9381;54.244;10.074;2023-05-10T16:26:21;13.00;;;9.40;;
18503;SDS011;9381;54.244;10.074;2023-05-10T16:31:22;10.93;;;9.82;;
18503;SDS011;9381;54.244;10.074;2023-05-10T16:36:22;10.10;;;9.10;;
18503;SDS011;9381;54.244;10.074;2023-05-10T16:41:22;10.13;;;9.13;;
18503;SDS011;9381;54.244;10.074;2023-05-10T16:46:23;10.57;;;9.57;;
18503;SDS011;9381;54.244;10.074;2023-05-10T16:51:23;9.57;;;8.70;;
18503;SDS011;9381;54.244;10.074;2023-05-10T16:56:23;12.53;;;9.40;;
18503;SDS011;9381;54.244;10.074;2023-05-10T17:01:24;9.20;;;8.30;;
18503;SDS011;9381;54.244;10.074;2023-05-10T17:06:24;9.17;;;8.27;;
18503;SDS011;9381;54.244;10.074;2023-05-10T17:11:24;8.55;;;7.75;;
18503;SDS011;9381;54.244;10.074;2023-05-10T17:16:25;8.48;;;7.57;;
18503;SDS011;9381;54.244;10.074;2023-05-10T17:21:26;8.10;;;7.37;;
18503;SDS011;9381;54.244;10.074;2023-05-10T17:26:26;9.20;;;8.23;;
18503;SDS011;9381;54.244;10.074;2023-05-10T17:31:26;8.40;;;7.43;;
18503;SDS011;9381;54.244;10.074;2023-05-10T17:36:27;8.67;;;6.93;;
18503;SDS011;9381;54.244;10.074;2023-05-10T17:41:27;7.50;;;6.50;;
18503;SDS011;9381;54.244;10.074;2023-05-10T17:46:27;7.53;;;6.73;;
18503;SDS011;9381;54.244;10.074;2023-05-10T17:51:28;7.53;;;6.83;;
18503;SDS011;9381;54.244;10.074;2023-05-10T17:56:28;7.07;;;6.20;;
18503;SDS011;9381;54.244;10.074;2023-05-10T18:01:28;7.90;;;7.20;;
18503;SDS011;9381;54.244;10.074;2023-05-10T18:06:29;7.23;;;6.60;;
18503;SDS011;9381;54.244;10.074;2023-05-10T18:11:29;7.23;;;6.63;;
18503;SDS011;9381;54.244;10.074;2023-05-10T18:16:30;7.33;;;5.73;;
18503;SDS011;9381;54.244;10.074;2023-05-10T18:21:30;6.90;;;6.30;;
18503;SDS011;9381;54.244;10.074;2023-05-10T18:26:30;6.67;;;6.07;;
18503;SDS011;9381;54.244;10.074;2023-05-10T18:31:31;8.53;;;7.73;;
18503;SDS011;9381;54.244;10.074;2023-05-10T18:36:31;6.67;;;6.10;;
18503;SDS011;9381;54.244;10.074;2023-05-10T18:41:32;7.70;;;6.90;;
18503;SDS011;9381;54.244;10.074;2023-05-10T18:46:32;9.90;;;8.90;;
18503;SDS011;9381;54.244;10.074;2023-05-10T18:51:34;12.13;;;11.03;;
18503;SDS011;9381;54.244;10.074;2023-05-10T18:56:35;11.77;;;10.67;;
18503;SDS011;9381;54.244;10.074;2023-05-10T19:01:36;14.77;;;13.27;;
18503;SDS011;9381;54.244;10.074;2023-05-10T19:06:36;17.77;;;15.97;;
18503;SDS011;9381;54.244;10.074;2023-05-10T19:11:37;18.23;;;16.33;;
18503;SDS011;9381;54.244;10.074;2023-05-10T19:16:37;20.20;;;18.20;;
18503;SDS011;9381;54.244;10.074;2023-05-10T19:21:38;19.80;;;17.70;;
18503;SDS011;9381;54.244;10.074;2023-05-10T19:26:39;21.08;;;18.80;;
18503;SDS011;9381;54.244;10.074;2023-05-10T19:31:39;21.93;;;19.60;;
18503;SDS011;9381;54.244;10.074;2023-05-10T19:36:39;14.90;;;13.40;;
18503;SDS011;9381;54.244;10.074;2023-05-10T19:41:39;12.50;;;11.07;;
18503;SDS011;9381;54.244;10.074;2023-05-10T19:46:40;11.80;;;10.70;;
18503;SDS011;9381;54.244;10.074;2023-05-10T19:51:40;11.60;;;10.50;;
18503;SDS011;9381;54.244;10.074;2023-05-10T19:56:41;12.60;;;11.47;;
18503;SDS011;9381;54.244;10.074;2023-05-10T20:01:41;14.17;;;12.77;;
18503;SDS011;9381;54.244;10.074;2023-05-10T20:06:41;14.83;;;13.33;;
18503;SDS011;9381;54.244;10.074;2023-05-10T20:11:42;14.00;;;12.57;;
18503;SDS011;9381;54.244;10.074;2023-05-10T20:16:42;18.27;;;16.37;;
18503;SDS011;9381;54.244;10.074;2023-05-10T20:21:42;19.23;;;17.27;;
18503;SDS011;9381;54.244;10.074;2023-05-10T20:26:43;19.23;;;17.30;;
18503;SDS011;9381;54.244;10.074;2023-05-10T20:31:43;18.63;;;16.80;;
18503;SDS011;9381;54.244;10.074;2023-05-10T20:36:44;24.03;;;21.43;;
18503;SDS011;9381;54.244;10.074;2023-05-10T20:41:44;30.87;;;25.63;;
18503;SDS011;9381;54.244;10.074;2023-05-10T20:46:44;35.37;;;27.53;;
18503;SDS011;9381;54.244;10.074;2023-05-10T20:51:45;33.13;;;27.70;;
18503;SDS011;9381;54.244;10.074;2023-05-10T20:56:45;29.83;;;24.87;;
18503;SDS011;9381;54.244;10.074;2023-05-10T21:01:46;24.40;;;20.63;;
18503;SDS011;9381;54.244;10.074;2023-05-10T21:06:46;21.87;;;17.43;;
18503;SDS011;9381;54.244;10.074;2023-05-10T21:11:47;17.33;;;13.93;;
18503;SDS011;9381;54.244;10.074;2023-05-10T21:16:48;22.47;;;14.03;;
18503;SDS011;9381;54.244;10.074;2023-05-10T21:21:50;17.60;;;14.50;;
18503;SDS011;9381;54.244;10.074;2023-05-10T21:26:50;17.43;;;13.10;;
18503;SDS011;9381;54.244;10.074;2023-05-10T21:31:51;16.93;;;14.00;;
18503;SDS011;9381;54.244;10.074;2023-05-10T21:36:52;14.93;;;12.37;;
18503;SDS011;9381;54.244;10.074;2023-05-10T21:41:53;15.83;;;12.90;;
18503;SDS011;9381;54.244;10.074;2023-05-10T21:46:54;15.83;;;12.93;;
18503;SDS011;9381;54.244;10.074;2023-05-10T21:51:54;18.23;;;14.47;;
18503;SDS011;9381;54.244;10.074;2023-05-10T21:56:54;16.33;;;13.57;;
18503;SDS011;9381;54.244;10.074;2023-05-10T22:01:55;19.50;;;15.70;;
18503;SDS011;9381;54.244;10.074;2023-05-10T22:06:55;20.48;;;15.85;;
18503;SDS011;9381;54.244;10.074;2023-05-10T22:11:55;20.75;;;16.38;;
18503;SDS011;9381;54.244;10.074;2023-05-10T22:16:55;19.88;;;15.07;;
18503;SDS011;9381;54.244;10.074;2023-05-10T22:21:56;16.87;;;12.83;;
18503;SDS011;9381;54.244;10.074;2023-05-10T22:26:57;16.63;;;12.43;;
18503;SDS011;9381;54.244;10.074;2023-05-10T22:31:57;16.63;;;12.60;;
18503;SDS011;9381;54.244;10.074;2023-05-10T22:36:57;14.13;;;10.67;;
18503;SDS011;9381;54.244;10.074;2023-05-10T22:42:01;10.47;;;8.30;;
18503;SDS011;9381;54.244;10.074;2023-05-10T22:47:01;13.03;;;9.53;;
18503;SDS011;9381;54.244;10.074;2023-05-10T22:52:02;9.90;;;7.37;;
18503;SDS011;9381;54.244;10.074;2023-05-10T22:57:02;11.00;;;8.13;;
18503;SDS011;9381;54.244;10.074;2023-05-10T23:02:03;11.63;;;8.70;;
18503;SDS011;9381;54.244;10.074;2023-05-10T23:07:03;15.40;;;10.23;;
18503;SDS011;9381;54.244;10.074;2023-05-10T23:12:04;14.27;;;9.83;;
18503;SDS011;9381;54.244;10.074;2023-05-10T23:17:04;15.33;;;11.33;;
18503;SDS011;9381;54.244;10.074;2023-05-10T23:22:04;14.87;;;11.57;;
18503;SDS011;9381;54.244;10.074;2023-05-10T23:27:05;16.20;;;11.25;;
18503;SDS011;9381;54.244;10.074;2023-05-10T23:32:05;15.97;;;12.57;;
18503;SDS011;9381;54.244;10.074;2023-05-10T23:37:05;17.70;;;13.23;;
18503;SDS011;9381;54.244;10.074;2023-05-10T23:42:06;17.48;;;12.70;;
18503;SDS011;9381;54.244;10.074;2023-05-10T23:47:06;18.33;;;12.57;;
18503;SDS011;9381;54.244;10.074;2023-05-10T23:52:06;16.95;;;12.25;;
18503;SDS011;9381;54.244;10.074;2023-05-10T23:57:07;16.57;;;12.13;;
